sensor_id;sensor_type;location;lat;lon;timestamp;P1;durP1;ratioP1;P2;durP2;ratioP2
66487;SDS011;53304;54.550;18.526;2022-09-09T00:00:47;4.35;;;1.60;;
66487;SDS011;53304;54.550;18.526;2022-09-09T00:03:21;3.83;;;1.80;;
66487;SDS011;53304;54.550;18.526;2022-09-09T00:09:04;3.85;;;1.70;;
66487;SDS011;53304;54.550;18.526;2022-09-09T00:11:37;3.17;;;1.40;;
66487;SDS011;53304;54.550;18.526;2022-09-09T00:14:08;3.67;;;1.70;;
66487;SDS011;53304;54.550;18.526;2022-09-09T00:16:39;3.03;;;1.40;;
66487;SDS011;53304;54.550;18.526;2022-09-09T00:19:20;3.75;;;1.60;;
66487;SDS011;53304;54.550;18.526;2022-09-09T00:32:39;3.22;;;1.70;;
66487;SDS011;53304;54.550;18.526;2022-09-09T00:35:16;3.97;;;1.70;;
66487;SDS011;53304;54.550;18.526;2022-09-09T00:40:50;4.38;;;1.52;;
66487;SDS011;53304;54.550;18.526;2022-09-09T00:43:35;3.30;;;1.60;;
66487;SDS011;53304;54.550;18.526;2022-09-09T00:54:15;2.95;;;1.55;;
66487;SDS011;53304;54.550;18.526;2022-09-09T00:56:50;4.47;;;1.55;;
66487;SDS011;53304;54.550;18.526;2022-09-09T00:59:28;3.83;;;1.70;;
66487;SDS011;53304;54.550;18.526;2022-09-09T01:02:18;5.43;;;1.67;;
66487;SDS011;53304;54.550;18.526;2022-09-09T01:04:51;5.00;;;1.67;;
66487;SDS011;53304;54.550;18.526;2022-09-09T01:07:17;4.68;;;1.70;;
66487;SDS011;53304;54.550;18.526;2022-09-09T01:12:41;3.13;;;1.50;;
66487;SDS011;53304;54.550;18.526;2022-09-09T01:28:35;3.08;;;1.40;;
66487;SDS011;53304;54.550;18.526;2022-09-09T01:31:02;3.75;;;1.48;;
66487;SDS011;53304;54.550;18.526;2022-09-09T01:33:29;3.85;;;1.50;;
66487;SDS011;53304;54.550;18.526;2022-09-09T01:36:01;3.13;;;1.70;;
66487;SDS011;53304;54.550;18.526;2022-09-09T01:38:28;4.23;;;1.60;;
66487;SDS011;53304;54.550;18.526;2022-09-09T01:40:54;3.40;;;1.70;;
66487;SDS011;53304;54.550;18.526;2022-09-09T01:43:20;4.22;;;1.75;;
66487;SDS011;53304;54.550;18.526;2022-09-09T01:45:45;3.92;;;1.48;;
66487;SDS011;53304;54.550;18.526;2022-09-09T01:48:14;3.08;;;1.60;;
66487;SDS011;53304;54.550;18.526;2022-09-09T01:50:39;2.80;;;1.40;;
66487;SDS011;53304;54.550;18.526;2022-09-09T01:53:04;3.10;;;1.55;;
66487;SDS011;53304;54.550;18.526;2022-09-09T01:55:37;3.30;;;1.60;;
66487;SDS011;53304;54.550;18.526;2022-09-09T02:00:38;4.20;;;1.60;;
66487;SDS011;53304;54.550;18.526;2022-09-09T02:03:12;3.50;;;1.65;;
66487;SDS011;53304;54.550;18.526;2022-09-09T02:05:49;2.88;;;1.60;;
66487;SDS011;53304;54.550;18.526;2022-09-09T02:08:53;4.03;;;1.48;;
66487;SDS011;53304;54.550;18.526;2022-09-09T02:11:25;2.90;;;1.65;;
66487;SDS011;53304;54.550;18.526;2022-09-09T02:13:54;3.65;;;1.60;;
66487;SDS011;53304;54.550;18.526;2022-09-09T02:16:30;5.38;;;1.70;;
66487;SDS011;53304;54.550;18.526;2022-09-09T02:19:07;3.05;;;1.27;;
66487;SDS011;53304;54.550;18.526;2022-09-09T02:21:48;3.25;;;1.73;;
66487;SDS011;53304;54.550;18.526;2022-09-09T02:24:16;4.30;;;1.83;;
66487;SDS011;53304;54.550;18.526;2022-09-09T02:26:46;3.85;;;1.60;;
66487;SDS011;53304;54.550;18.526;2022-09-09T02:29:30;2.53;;;1.48;;
66487;SDS011;53304;54.550;18.526;2022-09-09T02:32:02;4.60;;;1.55;;
66487;SDS011;53304;54.550;18.526;2022-09-09T02:34:34;2.45;;;1.35;;
66487;SDS011;53304;54.550;18.526;2022-09-09T02:37:01;3.85;;;1.65;;
66487;SDS011;53304;54.550;18.526;2022-09-09T02:39:33;4.53;;;1.73;;
66487;SDS011;53304;54.550;18.526;2022-09-09T02:42:01;2.63;;;1.50;;
66487;SDS011;53304;54.550;18.526;2022-09-09T02:44:28;3.15;;;1.50;;
66487;SDS011;53304;54.550;18.526;2022-09-09T02:52:18;3.78;;;1.55;;
66487;SDS011;53304;54.550;18.526;2022-09-09T02:54:47;2.42;;;1.40;;
66487;SDS011;53304;54.550;18.526;2022-09-09T02:57:19;3.78;;;1.60;;
66487;SDS011;53304;54.550;18.526;2022-09-09T02:59:45;4.35;;;1.48;;
66487;SDS011;53304;54.550;18.526;2022-09-09T03:02:13;2.83;;;1.48;;
66487;SDS011;53304;54.550;18.526;2022-09-09T03:04:39;3.10;;;1.50;;
66487;SDS011;53304;54.550;18.526;2022-09-09T03:07:05;3.78;;;1.58;;
66487;SDS011;53304;54.550;18.526;2022-09-09T03:09:33;3.75;;;1.50;;
66487;SDS011;53304;54.550;18.526;2022-09-09T03:11:58;3.50;;;1.63;;
66487;SDS011;53304;54.550;18.526;2022-09-09T03:14:24;3.78;;;1.40;;
66487;SDS011;53304;54.550;18.526;2022-09-09T03:16:53;2.88;;;1.50;;
66487;SDS011;53304;54.550;18.526;2022-09-09T03:19:25;5.05;;;1.60;;
66487;SDS011;53304;54.550;18.526;2022-09-09T03:21:57;2.85;;;1.60;;
66487;SDS011;53304;54.550;18.526;2022-09-09T03:24:25;3.60;;;1.52;;
66487;SDS011;53304;54.550;18.526;2022-09-09T03:26:51;4.07;;;1.80;;
66487;SDS011;53304;54.550;18.526;2022-09-09T03:29:16;4.80;;;1.85;;
66487;SDS011;53304;54.550;18.526;2022-09-09T03:31:43;3.95;;;1.40;;
66487;SDS011;53304;54.550;18.526;2022-09-09T03:34:11;4.00;;;1.80;;
66487;SDS011;53304;54.550;18.526;2022-09-09T03:36:41;3.17;;;1.70;;
66487;SDS011;53304;54.550;18.526;2022-09-09T03:39:08;5.80;;;1.50;;
66487;SDS011;53304;54.550;18.526;2022-09-09T03:41:36;3.63;;;1.50;;
66487;SDS011;53304;54.550;18.526;2022-09-09T03:44:02;4.32;;;1.73;;
66487;SDS011;53304;54.550;18.526;2022-09-09T03:46:27;3.92;;;1.67;;
66487;SDS011;53304;54.550;18.526;2022-09-09T03:48:53;2.80;;;1.70;;
66487;SDS011;53304;54.550;18.526;2022-09-09T03:51:18;4.60;;;1.73;;
66487;SDS011;53304;54.550;18.526;2022-09-09T03:53:44;5.43;;;1.77;;
66487;SDS011;53304;54.550;18.526;2022-09-09T03:56:12;3.83;;;1.60;;
66487;SDS011;53304;54.550;18.526;2022-09-09T03:58:40;4.15;;;1.70;;
66487;SDS011;53304;54.550;18.526;2022-09-09T04:01:07;3.95;;;1.80;;
66487;SDS011;53304;54.550;18.526;2022-09-09T04:03:38;4.05;;;1.80;;
66487;SDS011;53304;54.550;18.526;2022-09-09T04:06:08;3.83;;;1.70;;
66487;SDS011;53304;54.550;18.526;2022-09-09T04:08:38;3.13;;;1.50;;
66487;SDS011;53304;54.550;18.526;2022-09-09T04:11:04;4.13;;;1.90;;
66487;SDS011;53304;54.550;18.526;2022-09-09T04:13:36;2.95;;;1.60;;
66487;SDS011;53304;54.550;18.526;2022-09-09T04:16:08;3.95;;;1.67;;
66487;SDS011;53304;54.550;18.526;2022-09-09T04:18:38;5.90;;;1.80;;
66487;SDS011;53304;54.550;18.526;2022-09-09T04:21:03;4.38;;;1.70;;
66487;SDS011;53304;54.550;18.526;2022-09-09T04:23:31;3.38;;;1.58;;
66487;SDS011;53304;54.550;18.526;2022-09-09T04:25:57;4.90;;;1.80;;
66487;SDS011;53304;54.550;18.526;2022-09-09T04:28:27;3.15;;;1.48;;
66487;SDS011;53304;54.550;18.526;2022-09-09T04:30:54;3.60;;;1.70;;
66487;SDS011;53304;54.550;18.526;2022-09-09T04:33:26;4.30;;;1.83;;
66487;SDS011;53304;54.550;18.526;2022-09-09T04:35:51;4.07;;;1.73;;
66487;SDS011;53304;54.550;18.526;2022-09-09T04:38:23;3.78;;;1.70;;
66487;SDS011;53304;54.550;18.526;2022-09-09T04:40:51;4.43;;;1.85;;
66487;SDS011;53304;54.550;18.526;2022-09-09T04:43:18;3.50;;;1.70;;
66487;SDS011;53304;54.550;18.526;2022-09-09T04:45:46;3.95;;;1.75;;
66487;SDS011;53304;54.550;18.526;2022-09-09T04:48:15;3.97;;;1.77;;
66487;SDS011;53304;54.550;18.526;2022-09-09T04:50:40;3.42;;;1.80;;
66487;SDS011;53304;54.550;18.526;2022-09-09T04:53:06;3.13;;;1.80;;
66487;SDS011;53304;54.550;18.526;2022-09-09T04:55:31;3.17;;;1.63;;
66487;SDS011;53304;54.550;18.526;2022-09-09T04:58:06;4.88;;;1.83;;
66487;SDS011;53304;54.550;18.526;2022-09-09T05:00:34;4.68;;;1.88;;
66487;SDS011;53304;54.550;18.526;2022-09-09T05:03:06;4.72;;;1.83;;
66487;SDS011;53304;54.550;18.526;2022-09-09T05:05:36;5.13;;;1.70;;
66487;SDS011;53304;54.550;18.526;2022-09-09T05:08:05;13.13;;;2.10;;
66487;SDS011;53304;54.550;18.526;2022-09-09T05:10:33;7.55;;;2.10;;
66487;SDS011;53304;54.550;18.526;2022-09-09T05:13:01;6.65;;;2.10;;
66487;SDS011;53304;54.550;18.526;2022-09-09T05:15:29;3.50;;;1.98;;
66487;SDS011;53304;54.550;18.526;2022-09-09T05:18:00;11.30;;;2.55;;
66487;SDS011;53304;54.550;18.526;2022-09-09T05:20:26;4.22;;;1.95;;
66487;SDS011;53304;54.550;18.526;2022-09-09T05:22:54;12.93;;;3.45;;
66487;SDS011;53304;54.550;18.526;2022-09-09T05:25:23;18.63;;;3.22;;
66487;SDS011;53304;54.550;18.526;2022-09-09T05:27:51;11.88;;;2.90;;
66487;SDS011;53304;54.550;18.526;2022-09-09T05:30:18;7.80;;;2.20;;
66487;SDS011;53304;54.550;18.526;2022-09-09T05:32:44;15.05;;;2.95;;
66487;SDS011;53304;54.550;18.526;2022-09-09T05:35:12;14.38;;;3.22;;
66487;SDS011;53304;54.550;18.526;2022-09-09T05:37:40;11.18;;;3.22;;
66487;SDS011;53304;54.550;18.526;2022-09-09T05:40:08;11.35;;;3.15;;
66487;SDS011;53304;54.550;18.526;2022-09-09T05:42:35;11.57;;;3.00;;
66487;SDS011;53304;54.550;18.526;2022-09-09T05:45:00;18.17;;;3.28;;
66487;SDS011;53304;54.550;18.526;2022-09-09T05:47:25;7.43;;;2.53;;
66487;SDS011;53304;54.550;18.526;2022-09-09T05:49:52;9.77;;;2.63;;
66487;SDS011;53304;54.550;18.526;2022-09-09T05:52:18;11.63;;;2.75;;
66487;SDS011;53304;54.550;18.526;2022-09-09T05:54:46;9.55;;;2.70;;
66487;SDS011;53304;54.550;18.526;2022-09-09T05:57:11;6.45;;;2.60;;
66487;SDS011;53304;54.550;18.526;2022-09-09T05:59:39;6.45;;;2.42;;
66487;SDS011;53304;54.550;18.526;2022-09-09T06:02:04;7.85;;;2.50;;
66487;SDS011;53304;54.550;18.526;2022-09-09T06:04:37;8.07;;;2.45;;
66487;SDS011;53304;54.550;18.526;2022-09-09T06:07:04;5.20;;;2.35;;
66487;SDS011;53304;54.550;18.526;2022-09-09T06:09:32;5.25;;;2.50;;
66487;SDS011;53304;54.550;18.526;2022-09-09T06:12:01;5.18;;;2.15;;
66487;SDS011;53304;54.550;18.526;2022-09-09T06:14:28;5.05;;;2.17;;
66487;SDS011;53304;54.550;18.526;2022-09-09T06:16:57;7.53;;;2.20;;
66487;SDS011;53304;54.550;18.526;2022-09-09T06:19:27;6.95;;;2.40;;
66487;SDS011;53304;54.550;18.526;2022-09-09T06:21:52;7.72;;;2.25;;
66487;SDS011;53304;54.550;18.526;2022-09-09T06:24:20;5.03;;;2.15;;
66487;SDS011;53304;54.550;18.526;2022-09-09T06:26:46;7.18;;;2.47;;
66487;SDS011;53304;54.550;18.526;2022-09-09T06:29:14;5.13;;;2.30;;
66487;SDS011;53304;54.550;18.526;2022-09-09T06:31:41;4.68;;;2.00;;
66487;SDS011;53304;54.550;18.526;2022-09-09T06:34:07;6.88;;;2.05;;
66487;SDS011;53304;54.550;18.526;2022-09-09T06:36:36;5.13;;;2.22;;
66487;SDS011;53304;54.550;18.526;2022-09-09T06:39:05;5.25;;;1.90;;
66487;SDS011;53304;54.550;18.526;2022-09-09T06:41:36;5.15;;;2.13;;
66487;SDS011;53304;54.550;18.526;2022-09-09T06:44:07;4.78;;;2.20;;
66487;SDS011;53304;54.550;18.526;2022-09-09T06:46:36;6.38;;;2.10;;
66487;SDS011;53304;54.550;18.526;2022-09-09T06:49:05;8.13;;;2.05;;
66487;SDS011;53304;54.550;18.526;2022-09-09T06:51:32;5.82;;;1.90;;
66487;SDS011;53304;54.550;18.526;2022-09-09T06:54:00;5.78;;;2.00;;
66487;SDS011;53304;54.550;18.526;2022-09-09T06:58:57;4.63;;;1.73;;
66487;SDS011;53304;54.550;18.526;2022-09-09T07:01:26;4.28;;;1.98;;
66487;SDS011;53304;54.550;18.526;2022-09-09T07:03:54;6.35;;;1.90;;
66487;SDS011;53304;54.550;18.526;2022-09-09T07:06:25;3.72;;;1.77;;
66487;SDS011;53304;54.550;18.526;2022-09-09T07:08:56;4.15;;;1.95;;
66487;SDS011;53304;54.550;18.526;2022-09-09T07:11:27;5.38;;;2.20;;
66487;SDS011;53304;54.550;18.526;2022-09-09T07:13:53;4.10;;;1.90;;
66487;SDS011;53304;54.550;18.526;2022-09-09T07:16:21;3.30;;;2.00;;
66487;SDS011;53304;54.550;18.526;2022-09-09T07:18:50;8.73;;;2.15;;
66487;SDS011;53304;54.550;18.526;2022-09-09T07:21:16;8.10;;;2.10;;
66487;SDS011;53304;54.550;18.526;2022-09-09T07:23:42;7.00;;;2.00;;
66487;SDS011;53304;54.550;18.526;2022-09-09T07:26:09;8.30;;;2.00;;
66487;SDS011;53304;54.550;18.526;2022-09-09T07:28:44;8.40;;;2.50;;
66487;SDS011;53304;54.550;18.526;2022-09-09T07:31:17;10.48;;;2.25;;
66487;SDS011;53304;54.550;18.526;2022-09-09T07:33:47;6.65;;;2.05;;
66487;SDS011;53304;54.550;18.526;2022-09-09T07:36:17;7.95;;;2.10;;
66487;SDS011;53304;54.550;18.526;2022-09-09T07:38:46;6.43;;;2.05;;
66487;SDS011;53304;54.550;18.526;2022-09-09T07:41:14;5.28;;;1.90;;
66487;SDS011;53304;54.550;18.526;2022-09-09T07:43:42;4.45;;;1.90;;
66487;SDS011;53304;54.550;18.526;2022-09-09T07:46:12;6.97;;;2.10;;
66487;SDS011;53304;54.550;18.526;2022-09-09T07:48:43;6.15;;;2.17;;
66487;SDS011;53304;54.550;18.526;2022-09-09T07:51:16;4.82;;;1.90;;
66487;SDS011;53304;54.550;18.526;2022-09-09T07:53:51;6.43;;;2.30;;
66487;SDS011;53304;54.550;18.526;2022-09-09T07:56:20;5.53;;;2.17;;
66487;SDS011;53304;54.550;18.526;2022-09-09T07:58:48;7.18;;;2.10;;
66487;SDS011;53304;54.550;18.526;2022-09-09T08:01:16;3.50;;;1.60;;
66487;SDS011;53304;54.550;18.526;2022-09-09T08:03:46;4.70;;;2.10;;
66487;SDS011;53304;54.550;18.526;2022-09-09T08:06:16;4.47;;;2.03;;
66487;SDS011;53304;54.550;18.526;2022-09-09T08:08:44;4.50;;;2.17;;
66487;SDS011;53304;54.550;18.526;2022-09-09T08:11:13;5.35;;;2.38;;
66487;SDS011;53304;54.550;18.526;2022-09-09T08:13:42;4.88;;;2.53;;
66487;SDS011;53304;54.550;18.526;2022-09-09T08:16:12;6.03;;;1.90;;
66487;SDS011;53304;54.550;18.526;2022-09-09T08:18:38;4.95;;;2.20;;
66487;SDS011;53304;54.550;18.526;2022-09-09T08:21:14;5.65;;;2.22;;
66487;SDS011;53304;54.550;18.526;2022-09-09T08:23:51;5.57;;;2.00;;
66487;SDS011;53304;54.550;18.526;2022-09-09T08:26:21;5.10;;;2.03;;
66487;SDS011;53304;54.550;18.526;2022-09-09T08:28:51;7.82;;;2.45;;
66487;SDS011;53304;54.550;18.526;2022-09-09T08:31:24;7.15;;;2.30;;
66487;SDS011;53304;54.550;18.526;2022-09-09T08:33:54;11.07;;;2.38;;
66487;SDS011;53304;54.550;18.526;2022-09-09T08:36:24;13.43;;;2.40;;
66487;SDS011;53304;54.550;18.526;2022-09-09T08:38:54;9.88;;;2.50;;
66487;SDS011;53304;54.550;18.526;2022-09-09T08:54:46;6.63;;;2.30;;
66487;SDS011;53304;54.550;18.526;2022-09-09T08:57:18;3.95;;;2.10;;
66487;SDS011;53304;54.550;18.526;2022-09-09T08:59:45;4.32;;;2.13;;
66487;SDS011;53304;54.550;18.526;2022-09-09T09:02:15;4.70;;;2.30;;
66487;SDS011;53304;54.550;18.526;2022-09-09T09:07:35;6.13;;;2.45;;
66487;SDS011;53304;54.550;18.526;2022-09-09T09:10:35;4.45;;;2.10;;
66487;SDS011;53304;54.550;18.526;2022-09-09T09:13:04;5.50;;;2.03;;
66487;SDS011;53304;54.550;18.526;2022-09-09T09:15:38;4.27;;;2.10;;
66487;SDS011;53304;54.550;18.526;2022-09-09T09:18:05;4.40;;;2.10;;
66487;SDS011;53304;54.550;18.526;2022-09-09T09:20:45;5.80;;;2.30;;
66487;SDS011;53304;54.550;18.526;2022-09-09T09:26:34;6.43;;;2.10;;
66487;SDS011;53304;54.550;18.526;2022-09-09T09:29:10;4.65;;;2.20;;
66487;SDS011;53304;54.550;18.526;2022-09-09T09:31:37;10.10;;;2.50;;
66487;SDS011;53304;54.550;18.526;2022-09-09T09:34:05;16.90;;;2.60;;
66487;SDS011;53304;54.550;18.526;2022-09-09T09:36:43;8.45;;;2.38;;
66487;SDS011;53304;54.550;18.526;2022-09-09T09:39:22;7.97;;;2.47;;
66487;SDS011;53304;54.550;18.526;2022-09-09T09:41:55;17.92;;;3.70;;
66487;SDS011;53304;54.550;18.526;2022-09-09T09:44:25;19.50;;;3.33;;
66487;SDS011;53304;54.550;18.526;2022-09-09T09:47:04;32.63;;;4.22;;
66487;SDS011;53304;54.550;18.526;2022-09-09T09:49:33;21.88;;;3.13;;
66487;SDS011;53304;54.550;18.526;2022-09-09T09:52:04;20.10;;;3.42;;
66487;SDS011;53304;54.550;18.526;2022-09-09T09:54:37;19.60;;;6.40;;
66487;SDS011;53304;54.550;18.526;2022-09-09T09:57:14;15.32;;;3.08;;
66487;SDS011;53304;54.550;18.526;2022-09-09T09:59:40;10.10;;;2.67;;
66487;SDS011;53304;54.550;18.526;2022-09-09T10:02:31;10.50;;;2.78;;
66487;SDS011;53304;54.550;18.526;2022-09-09T10:05:00;10.65;;;2.50;;
66487;SDS011;53304;54.550;18.526;2022-09-09T10:07:27;12.15;;;2.72;;
66487;SDS011;53304;54.550;18.526;2022-09-09T10:09:57;10.55;;;2.95;;
66487;SDS011;53304;54.550;18.526;2022-09-09T10:12:34;5.50;;;2.42;;
66487;SDS011;53304;54.550;18.526;2022-09-09T10:40:12;10.88;;;3.67;;
66487;SDS011;53304;54.550;18.526;2022-09-09T10:42:47;8.82;;;3.67;;
66487;SDS011;53304;54.550;18.526;2022-09-09T10:53:22;8.55;;;3.15;;
66487;SDS011;53304;54.550;18.526;2022-09-09T10:55:53;7.38;;;3.47;;
66487;SDS011;53304;54.550;18.526;2022-09-09T10:58:24;8.55;;;4.03;;
66487;SDS011;53304;54.550;18.526;2022-09-09T11:00:54;9.82;;;4.05;;
66487;SDS011;53304;54.550;18.526;2022-09-09T11:03:24;15.43;;;6.25;;
66487;SDS011;53304;54.550;18.526;2022-09-09T11:08:18;33.33;;;13.68;;
66487;SDS011;53304;54.550;18.526;2022-09-09T11:11:04;47.33;;;20.73;;
66487;SDS011;53304;54.550;18.526;2022-09-09T11:13:39;55.88;;;26.65;;
66487;SDS011;53304;54.550;18.526;2022-09-09T11:18:36;79.10;;;38.05;;
66487;SDS011;53304;54.550;18.526;2022-09-09T11:21:07;70.47;;;33.10;;
66487;SDS011;53304;54.550;18.526;2022-09-09T11:23:39;68.10;;;30.77;;
66487;SDS011;53304;54.550;18.526;2022-09-09T11:26:07;66.22;;;31.77;;
66487;SDS011;53304;54.550;18.526;2022-09-09T11:40:08;92.00;;;44.17;;
66487;SDS011;53304;54.550;18.526;2022-09-09T11:42:39;93.68;;;42.97;;
66487;SDS011;53304;54.550;18.526;2022-09-09T11:45:08;71.72;;;35.08;;
66487;SDS011;53304;54.550;18.526;2022-09-09T11:47:50;65.95;;;31.90;;
66487;SDS011;53304;54.550;18.526;2022-09-09T11:52:45;44.33;;;22.58;;
66487;SDS011;53304;54.550;18.526;2022-09-09T11:57:57;27.48;;;14.15;;
66487;SDS011;53304;54.550;18.526;2022-09-09T12:03:05;22.27;;;11.18;;
66487;SDS011;53304;54.550;18.526;2022-09-09T12:05:52;19.70;;;9.60;;
66487;SDS011;53304;54.550;18.526;2022-09-09T12:08:19;18.77;;;8.70;;
66487;SDS011;53304;54.550;18.526;2022-09-09T12:10:56;15.98;;;8.50;;
66487;SDS011;53304;54.550;18.526;2022-09-09T12:13:25;20.83;;;9.63;;
66487;SDS011;53304;54.550;18.526;2022-09-09T12:15:55;17.85;;;8.60;;
66487;SDS011;53304;54.550;18.526;2022-09-09T12:18:25;15.93;;;7.88;;
66487;SDS011;53304;54.550;18.526;2022-09-09T12:26:31;15.40;;;7.57;;
66487;SDS011;53304;54.550;18.526;2022-09-09T12:37:02;13.10;;;6.90;;
66487;SDS011;53304;54.550;18.526;2022-09-09T12:39:33;14.93;;;6.57;;
66487;SDS011;53304;54.550;18.526;2022-09-09T12:42:00;15.90;;;6.65;;
66487;SDS011;53304;54.550;18.526;2022-09-09T12:44:28;16.13;;;6.68;;
66487;SDS011;53304;54.550;18.526;2022-09-09T12:46:54;13.90;;;6.78;;
66487;SDS011;53304;54.550;18.526;2022-09-09T12:49:28;12.48;;;5.68;;
66487;SDS011;53304;54.550;18.526;2022-09-09T12:51:56;10.65;;;6.18;;
66487;SDS011;53304;54.550;18.526;2022-09-09T12:54:25;14.32;;;5.63;;
66487;SDS011;53304;54.550;18.526;2022-09-09T12:56:50;10.25;;;5.68;;
66487;SDS011;53304;54.550;18.526;2022-09-09T12:59:23;13.15;;;6.00;;
66487;SDS011;53304;54.550;18.526;2022-09-09T13:01:58;16.33;;;6.00;;
66487;SDS011;53304;54.550;18.526;2022-09-09T13:04:24;14.50;;;5.75;;
66487;SDS011;53304;54.550;18.526;2022-09-09T13:06:52;13.63;;;6.00;;
66487;SDS011;53304;54.550;18.526;2022-09-09T13:09:20;11.70;;;5.88;;
66487;SDS011;53304;54.550;18.526;2022-09-09T13:11:50;12.88;;;5.25;;
66487;SDS011;53304;54.550;18.526;2022-09-09T13:17:00;10.75;;;5.57;;
66487;SDS011;53304;54.550;18.526;2022-09-09T13:19:30;10.80;;;5.15;;
66487;SDS011;53304;54.550;18.526;2022-09-09T13:22:01;12.23;;;5.10;;
66487;SDS011;53304;54.550;18.526;2022-09-09T13:24:40;12.25;;;5.50;;
66487;SDS011;53304;54.550;18.526;2022-09-09T13:27:26;9.90;;;5.20;;
66487;SDS011;53304;54.550;18.526;2022-09-09T13:29:54;9.98;;;5.22;;
66487;SDS011;53304;54.550;18.526;2022-09-09T13:32:23;11.27;;;5.60;;
66487;SDS011;53304;54.550;18.526;2022-09-09T13:34:58;10.05;;;4.90;;
66487;SDS011;53304;54.550;18.526;2022-09-09T13:37:36;12.65;;;5.05;;
66487;SDS011;53304;54.550;18.526;2022-09-09T13:40:03;10.63;;;5.47;;
66487;SDS011;53304;54.550;18.526;2022-09-09T13:42:31;9.75;;;4.93;;
66487;SDS011;53304;54.550;18.526;2022-09-09T13:45:01;8.77;;;5.07;;
66487;SDS011;53304;54.550;18.526;2022-09-09T13:47:35;8.75;;;4.85;;
66487;SDS011;53304;54.550;18.526;2022-09-09T13:52:57;7.95;;;4.80;;
66487;SDS011;53304;54.550;18.526;2022-09-09T13:55:36;7.53;;;4.60;;
66487;SDS011;53304;54.550;18.526;2022-09-09T13:58:14;9.18;;;4.80;;
66487;SDS011;53304;54.550;18.526;2022-09-09T14:00:43;7.50;;;4.53;;
66487;SDS011;53304;54.550;18.526;2022-09-09T14:03:12;8.30;;;4.30;;
66487;SDS011;53304;54.550;18.526;2022-09-09T14:05:38;9.25;;;4.30;;
66487;SDS011;53304;54.550;18.526;2022-09-09T14:08:04;9.73;;;4.80;;
66487;SDS011;53304;54.550;18.526;2022-09-09T14:10:30;10.38;;;4.45;;
66487;SDS011;53304;54.550;18.526;2022-09-09T14:12:55;13.90;;;4.88;;
66487;SDS011;53304;54.550;18.526;2022-09-09T14:15:21;13.25;;;4.68;;
66487;SDS011;53304;54.550;18.526;2022-09-09T14:17:46;8.00;;;4.10;;
66487;SDS011;53304;54.550;18.526;2022-09-09T14:20:14;12.20;;;4.00;;
66487;SDS011;53304;54.550;18.526;2022-09-09T14:22:42;7.03;;;4.35;;
66487;SDS011;53304;54.550;18.526;2022-09-09T14:25:09;7.43;;;4.18;;
66487;SDS011;53304;54.550;18.526;2022-09-09T14:27:37;9.35;;;4.03;;
66487;SDS011;53304;54.550;18.526;2022-09-09T14:30:04;7.43;;;3.78;;
66487;SDS011;53304;54.550;18.526;2022-09-09T14:32:30;12.88;;;4.65;;
66487;SDS011;53304;54.550;18.526;2022-09-09T14:34:55;7.40;;;4.72;;
66487;SDS011;53304;54.550;18.526;2022-09-09T14:37:23;13.43;;;4.43;;
66487;SDS011;53304;54.550;18.526;2022-09-09T14:39:49;10.20;;;6.45;;
66487;SDS011;53304;54.550;18.526;2022-09-09T14:42:15;14.20;;;6.97;;
66487;SDS011;53304;54.550;18.526;2022-09-09T14:44:41;14.13;;;7.82;;
66487;SDS011;53304;54.550;18.526;2022-09-09T14:47:06;11.95;;;6.70;;
66487;SDS011;53304;54.550;18.526;2022-09-09T14:49:35;14.20;;;8.95;;
66487;SDS011;53304;54.550;18.526;2022-09-09T14:52:01;13.70;;;8.77;;
66487;SDS011;53304;54.550;18.526;2022-09-09T14:54:29;15.60;;;9.13;;
66487;SDS011;53304;54.550;18.526;2022-09-09T14:56:58;15.75;;;8.82;;
66487;SDS011;53304;54.550;18.526;2022-09-09T14:59:24;11.70;;;8.20;;
66487;SDS011;53304;54.550;18.526;2022-09-09T15:01:51;13.00;;;8.60;;
66487;SDS011;53304;54.550;18.526;2022-09-09T15:04:17;12.75;;;8.30;;
66487;SDS011;53304;54.550;18.526;2022-09-09T15:06:43;16.33;;;10.05;;
66487;SDS011;53304;54.550;18.526;2022-09-09T15:09:13;17.83;;;10.70;;
66487;SDS011;53304;54.550;18.526;2022-09-09T15:11:39;17.55;;;11.00;;
66487;SDS011;53304;54.550;18.526;2022-09-09T15:14:07;18.80;;;11.02;;
66487;SDS011;53304;54.550;18.526;2022-09-09T15:16:41;18.00;;;11.07;;
66487;SDS011;53304;54.550;18.526;2022-09-09T15:19:13;16.60;;;10.73;;
66487;SDS011;53304;54.550;18.526;2022-09-09T15:21:41;15.75;;;10.40;;
66487;SDS011;53304;54.550;18.526;2022-09-09T15:24:11;14.98;;;9.75;;
66487;SDS011;53304;54.550;18.526;2022-09-09T15:26:41;18.60;;;10.35;;
66487;SDS011;53304;54.550;18.526;2022-09-09T15:29:11;15.13;;;9.30;;
66487;SDS011;53304;54.550;18.526;2022-09-09T15:31:44;14.45;;;9.77;;
66487;SDS011;53304;54.550;18.526;2022-09-09T15:34:09;16.48;;;9.32;;
66487;SDS011;53304;54.550;18.526;2022-09-09T15:36:36;15.85;;;9.13;;
66487;SDS011;53304;54.550;18.526;2022-09-09T15:39:09;14.40;;;9.40;;
66487;SDS011;53304;54.550;18.526;2022-09-09T15:41:37;15.23;;;9.60;;
66487;SDS011;53304;54.550;18.526;2022-09-09T15:44:06;15.85;;;10.27;;
66487;SDS011;53304;54.550;18.526;2022-09-09T15:46:32;17.02;;;10.80;;
66487;SDS011;53304;54.550;18.526;2022-09-09T15:51:42;13.45;;;9.05;;
66487;SDS011;53304;54.550;18.526;2022-09-09T15:54:15;15.55;;;9.25;;
66487;SDS011;53304;54.550;18.526;2022-09-09T15:56:43;13.13;;;8.85;;
66487;SDS011;53304;54.550;18.526;2022-09-09T15:59:09;14.32;;;8.68;;
66487;SDS011;53304;54.550;18.526;2022-09-09T16:01:35;12.75;;;9.20;;
66487;SDS011;53304;54.550;18.526;2022-09-09T16:04:03;14.02;;;8.80;;
66487;SDS011;53304;54.550;18.526;2022-09-09T16:06:29;13.63;;;8.60;;
66487;SDS011;53304;54.550;18.526;2022-09-09T16:08:58;12.75;;;8.40;;
66487;SDS011;53304;54.550;18.526;2022-09-09T16:11:35;13.20;;;8.50;;
66487;SDS011;53304;54.550;18.526;2022-09-09T16:14:06;12.07;;;8.70;;
66487;SDS011;53304;54.550;18.526;2022-09-09T16:16:32;13.02;;;8.25;;
66487;SDS011;53304;54.550;18.526;2022-09-09T16:19:03;14.23;;;8.13;;
66487;SDS011;53304;54.550;18.526;2022-09-09T16:21:36;12.48;;;8.20;;
66487;SDS011;53304;54.550;18.526;2022-09-09T16:24:08;13.60;;;8.20;;
66487;SDS011;53304;54.550;18.526;2022-09-09T16:26:38;11.20;;;8.00;;
66487;SDS011;53304;54.550;18.526;2022-09-09T16:29:10;11.38;;;7.80;;
66487;SDS011;53304;54.550;18.526;2022-09-09T16:31:36;11.73;;;7.78;;
66487;SDS011;53304;54.550;18.526;2022-09-09T16:34:02;12.90;;;8.48;;
66487;SDS011;53304;54.550;18.526;2022-09-09T16:36:31;14.13;;;8.55;;
66487;SDS011;53304;54.550;18.526;2022-09-09T16:39:02;13.70;;;8.45;;
66487;SDS011;53304;54.550;18.526;2022-09-09T16:41:31;16.85;;;8.02;;
66487;SDS011;53304;54.550;18.526;2022-09-09T16:43:57;16.35;;;8.95;;
66487;SDS011;53304;54.550;18.526;2022-09-09T16:46:30;12.07;;;8.65;;
66487;SDS011;53304;54.550;18.526;2022-09-09T16:48:57;14.55;;;9.23;;
66487;SDS011;53304;54.550;18.526;2022-09-09T16:51:28;12.50;;;8.63;;
66487;SDS011;53304;54.550;18.526;2022-09-09T16:53:58;13.07;;;8.80;;
66487;SDS011;53304;54.550;18.526;2022-09-09T16:56:28;13.52;;;9.00;;
66487;SDS011;53304;54.550;18.526;2022-09-09T16:58:56;12.75;;;8.85;;
66487;SDS011;53304;54.550;18.526;2022-09-09T17:01:24;12.35;;;8.60;;
66487;SDS011;53304;54.550;18.526;2022-09-09T17:03:53;14.27;;;9.48;;
66487;SDS011;53304;54.550;18.526;2022-09-09T17:06:22;13.15;;;8.93;;
66487;SDS011;53304;54.550;18.526;2022-09-09T17:08:54;11.88;;;8.00;;
66487;SDS011;53304;54.550;18.526;2022-09-09T17:11:22;12.80;;;8.17;;
66487;SDS011;53304;54.550;18.526;2022-09-09T17:13:51;12.48;;;8.25;;